createdAt,value
2018-07-14T00:00:06.273Z,95784
2018-07-14T00:01:08.720Z,95787.4
2018-07-14T00:02:10.671Z,95784.3
2018-07-14T00:03:12.591Z,95785.6
2018-07-14T00:04:15.037Z,95787.9
2018-07-14T00:05:17.220Z,95792.3
2018-07-14T00:06:19.401Z,95790.1
2018-07-14T00:07:21.557Z,95791.7
2018-07-14T00:08:24.040Z,95792.5
2018-07-14T00:09:26.525Z,95788.8
2018-07-14T00:10:28.688Z,95786.3
2018-07-14T00:11:31.150Z,95788.1
2018-07-14T00:12:33.587Z,95784.5
2018-07-14T00:13:35.773Z,95783.4
2018-07-14T00:14:38.218Z,95784.3
2018-07-14T00:15:40.376Z,95781.2
2018-07-14T00:16:42.561Z,95782.5
2018-07-14T00:17:44.738Z,95780.2
2018-07-14T00:18:47.185Z,95779.8
2018-07-14T00:19:49.627Z,95782.4
2018-07-14T00:20:51.813Z,95784.9
2018-07-14T00:21:53.965Z,95779.5
2018-07-14T00:22:55.868Z,95780.7
2018-07-14T00:23:57.792Z,95776.2
2018-07-14T00:24:59.682Z,95776.9
2018-07-14T00:26:01.591Z,95780.3
2018-07-14T00:27:04.037Z,95775.3
2018-07-14T00:28:06.476Z,95780.3
2018-07-14T00:29:08.645Z,95778.5
2018-07-14T00:30:11.221Z,95778.9
2018-07-14T00:31:13.672Z,95778.3
2018-07-14T00:32:15.839Z,95779
2018-07-14T00:33:18.017Z,95775.7
2018-07-14T00:34:20.480Z,95774.2
2018-07-14T00:35:22.940Z,95772.9
2018-07-14T00:36:25.397Z,95774.6
2018-07-14T00:37:27.291Z,95771.7
2018-07-14T00:38:29.730Z,95774.3
2018-07-14T00:39:31.649Z,95775.4
2018-07-14T00:40:34.086Z,95774.5
2018-07-14T00:41:36.525Z,95777.3
2018-07-14T00:42:38.704Z,95772.6
2018-07-14T00:43:41.160Z,95773.2
2018-07-14T00:44:43.308Z,95777.3
2018-07-14T00:45:45.503Z,95773
2018-07-14T00:46:47.684Z,95778.7
2018-07-14T00:47:49.910Z,95774.5
2018-07-14T00:48:52.085Z,95774.1
2018-07-14T00:49:54.536Z,95769
2018-07-14T00:50:56.714Z,95770.6
2018-07-14T00:51:58.869Z,95766.2
2018-07-14T00:53:01.047Z,95768.9
2018-07-14T00:54:03.523Z,95771.6
2018-07-14T00:55:05.689Z,95766.7
2018-07-14T00:56:07.856Z,95765.4
2018-07-14T00:57:10.044Z,95766.5
2018-07-14T00:58:12.207Z,95765.9
2018-07-14T00:59:14.127Z,95766.7
2018-07-14T01:00:16.569Z,95763.9
2018-07-14T01:01:19.008Z,95765.5
2018-07-14T01:02:21.458Z,95767
2018-07-14T01:03:23.639Z,95766.3
2018-07-14T01:04:26.067Z,95768
2018-07-14T01:05:28.248Z,95773.7
2018-07-14T01:06:30.695Z,95770.3
2018-07-14T01:07:33.150Z,95769.7
2018-07-14T01:08:35.301Z,95774.3
2018-07-14T01:09:37.471Z,95773.8
2018-07-14T01:10:39.910Z,95771.1
2018-07-14T01:11:42.360Z,95772.6
2018-07-14T01:12:44.805Z,95767.4
2018-07-14T01:13:47.257Z,95769.9
2018-07-14T01:14:49.705Z,95769.9
2018-07-14T01:15:51.875Z,95768.8
2018-07-14T01:16:53.789Z,95766.9
2018-07-14T01:17:55.627Z,95772.8
2018-07-14T01:18:58.077Z,95773.3
2018-07-14T01:20:00.578Z,95776.6
2018-07-14T01:21:02.470Z,95773.1
2018-07-14T01:22:04.667Z,95776.7
2018-07-14T01:23:07.117Z,95777.2
2018-07-14T01:24:09.033Z,95777.3
2018-07-14T01:25:11.237Z,95774.3
2018-07-14T01:26:13.107Z,95778
2018-07-14T01:27:15.290Z,95772.3
2018-07-14T01:28:17.755Z,95775.3
2018-07-14T01:29:19.930Z,95776.2
2018-07-14T01:30:22.385Z,95774.5
2018-07-14T01:31:24.004Z,95775.9
2018-07-14T01:32:26.450Z,95779
2018-07-14T01:33:28.632Z,95777.5
2018-07-14T01:34:31.079Z,95778.6
2018-07-14T01:35:33.249Z,95776.1
2018-07-14T01:36:35.441Z,95779.8
2018-07-14T01:37:37.889Z,95780.5
2018-07-14T01:38:40.299Z,95777.9
2018-07-14T01:39:42.207Z,95779
2018-07-14T01:40:45.085Z,95777.2
2018-07-14T01:41:47.063Z,95778.6
2018-07-14T01:42:49.519Z,95775.5
2018-07-14T01:43:51.963Z,95775.7
2018-07-14T01:44:53.885Z,95777.4
2018-07-14T01:45:56.344Z,95776.6
2018-07-14T01:46:57.961Z,95769.3
2018-07-14T01:48:00.128Z,95770.7
2018-07-14T01:49:02.026Z,95770.2
2018-07-14T01:50:04.201Z,95771.2
2018-07-14T01:51:06.376Z,95768.3
2018-07-14T01:52:08.825Z,95766
2018-07-14T01:53:11.298Z,95768.2
2018-07-14T01:54:13.229Z,95762.3
2018-07-14T01:55:15.130Z,95760.5
2018-07-14T01:56:17.319Z,95760.7
2018-07-14T01:57:19.475Z,95758.7
2018-07-14T01:58:21.919Z,95756.6
2018-07-14T01:59:24.402Z,95756
2018-07-14T02:00:25.756Z,95752
2018-07-14T02:01:28.253Z,95752.8
2018-07-14T02:02:30.706Z,95749.1
2018-07-14T02:03:33.143Z,95748.7
2018-07-14T02:04:35.595Z,95748.2
2018-07-14T02:05:38.056Z,95748.3
2018-07-14T02:06:40.498Z,95750.9
2018-07-14T02:07:42.387Z,95750.1
2018-07-14T02:08:44.566Z,95748
2018-07-14T02:09:46.728Z,95746.4
2018-07-14T02:10:49.185Z,95744.1
2018-07-14T02:11:51.640Z,95745.4
2018-07-14T02:12:53.512Z,95748.1
2018-07-14T02:13:55.435Z,95748.9
2018-07-14T02:14:57.892Z,95749.1
2018-07-14T02:16:00.352Z,95748.4
2018-07-14T02:17:02.260Z,95745.8
2018-07-14T02:18:04.708Z,95745
2018-07-14T02:19:07.158Z,95743.2
2018-07-14T02:20:09.055Z,95739.7
2018-07-14T02:21:11.235Z,95744.6
2018-07-14T02:22:13.414Z,95740.7
2018-07-14T02:23:15.875Z,95742.5
2018-07-14T02:24:18.059Z,95739
2018-07-14T02:25:20.506Z,95734.6
2018-07-14T02:26:22.947Z,95737.8
2018-07-14T02:27:25.789Z,95735.4
2018-07-14T02:28:28.350Z,95735.6
2018-07-14T02:29:30.645Z,95743.9
2018-07-14T02:30:32.576Z,95740.8
2018-07-14T02:31:34.721Z,95743.4
2018-07-14T02:32:37.166Z,95745.2
2018-07-14T02:33:39.344Z,95751
2018-07-14T02:34:41.513Z,95756.9
2018-07-14T02:35:43.390Z,95761.8
2018-07-14T02:36:45.313Z,95756.8
2018-07-14T02:37:47.200Z,95757.6
2018-07-14T02:38:49.083Z,95756.7
2018-07-14T02:39:51.530Z,95757.5
2018-07-14T02:40:53.975Z,95762.1
2018-07-14T02:41:56.151Z,95760.6
2018-07-14T02:42:58.603Z,95761.1
2018-07-14T02:44:01.051Z,95761.8
2018-07-14T02:45:03.507Z,95763.7
2018-07-14T02:46:05.403Z,95765.2
2018-07-14T02:47:07.851Z,95765.5
2018-07-14T02:48:10.338Z,95767.3
2018-07-14T02:49:12.483Z,95766.3
2018-07-14T02:50:14.661Z,95764.9
2018-07-14T02:51:16.836Z,95765.3
2018-07-14T02:52:19.288Z,95760.1
2018-07-14T02:53:21.744Z,95764.9
2018-07-14T02:54:23.930Z,95764.5
2018-07-14T02:55:26.376Z,95766.2
2018-07-14T02:56:28.819Z,95761.3
2018-07-14T02:57:30.733Z,95763.5
2018-07-14T02:58:32.927Z,95764.9
2018-07-14T02:59:35.449Z,95765.6
2018-07-14T03:00:37.670Z,95764.7
2018-07-14T03:01:40.109Z,95767.4
2018-07-14T03:02:42.279Z,95763.3
2018-07-14T03:03:44.203Z,95759.8
2018-07-14T03:04:46.649Z,95759.6
2018-07-14T03:05:48.841Z,95761.1
2018-07-14T03:06:51.024Z,95756.1
2018-07-14T03:07:53.486Z,95752.7
2018-07-14T03:08:55.671Z,95751.2
2018-07-14T03:09:58.117Z,95751.9
2018-07-14T03:11:00.052Z,95751.4
2018-07-14T03:12:01.671Z,95753.2
2018-07-14T03:13:04.106Z,95756.6
2018-07-14T03:14:06.560Z,95756.5
2018-07-14T03:15:09.022Z,95761.6
2018-07-14T03:16:11.210Z,95759.4
2018-07-14T03:17:13.394Z,95764.6
2018-07-14T03:18:15.841Z,95762.2
2018-07-14T03:19:18.539Z,95763.2
2018-07-14T03:20:20.762Z,95761.3
2018-07-14T03:21:23.205Z,95759.1
2018-07-14T03:22:25.095Z,95755.8
2018-07-14T03:23:27.536Z,95754.9
2018-07-14T03:24:29.983Z,95754.4
2018-07-14T03:25:32.152Z,95756.5
2018-07-14T03:26:34.598Z,95756.8
2018-07-14T03:27:36.766Z,95760.4
2018-07-14T03:28:39.219Z,95758.2
2018-07-14T03:29:41.657Z,95759.2
2018-07-14T03:30:44.115Z,95761.1
2018-07-14T03:31:46.020Z,95761.8
2018-07-14T03:32:48.202Z,95762.1
2018-07-14T03:33:50.365Z,95761.5
2018-07-14T03:34:52.264Z,95766.2
2018-07-14T03:35:54.445Z,95773
2018-07-14T03:36:56.616Z,95769.5
2018-07-14T03:37:59.067Z,95776.6
2018-07-14T03:39:00.700Z,95775.7
2018-07-14T03:40:03.145Z,95774.4
2018-07-14T03:41:05.592Z,95776
2018-07-14T03:42:08.275Z,95777.2
2018-07-14T03:43:10.445Z,95778.8
2018-07-14T03:44:12.613Z,95777.8
2018-07-14T03:45:13.951Z,95777.7
2018-07-14T03:46:16.404Z,95783.1
2018-07-14T03:47:18.854Z,95779.6
2018-07-14T03:48:21.015Z,95781.8
2018-07-14T03:49:23.456Z,95786.4
2018-07-14T03:50:25.609Z,95787.6
2018-07-14T03:51:28.050Z,95787.2
2018-07-14T03:52:30.229Z,95785.4
2018-07-14T03:53:32.680Z,95788.7
2018-07-14T03:54:34.867Z,95786.7
2018-07-14T03:55:37.045Z,95783.2
2018-07-14T03:56:39.220Z,95784.6
2018-07-14T03:57:41.673Z,95784.6
2018-07-14T03:58:43.836Z,95786.7
2018-07-14T03:59:45.464Z,95784.4
2018-07-14T04:00:47.905Z,95782.5
2018-07-14T04:01:50.096Z,95779.9
2018-07-14T04:02:52.266Z,95779.8
2018-07-14T04:03:54.714Z,95780.6
2018-07-14T04:04:57.162Z,95779.1
2018-07-14T04:05:59.356Z,95777.2
2018-07-14T04:07:01.803Z,95782
2018-07-14T04:08:04.254Z,95781.7
2018-07-14T04:09:05.897Z,95783.8
2018-07-14T04:10:07.797Z,95785.7
2018-07-14T04:11:10.255Z,95784
2018-07-14T04:12:12.437Z,95784
2018-07-14T04:13:14.894Z,95786.3
2018-07-14T04:14:17.359Z,95790.7
2018-07-14T04:15:19.544Z,95790.8
2018-07-14T04:16:21.450Z,95788.1
2018-07-14T04:17:23.936Z,95791.7
2018-07-14T04:18:26.081Z,95790.7
2018-07-14T04:19:28.541Z,95790.8
2018-07-14T04:20:30.414Z,95789.6
2018-07-14T04:21:32.861Z,95791.2
2018-07-14T04:22:35.309Z,95794.3
2018-07-14T04:23:37.222Z,95794
2018-07-14T04:24:39.674Z,95789.5
2018-07-14T04:25:41.552Z,95792.4
2018-07-14T04:26:43.742Z,95789.9
2018-07-14T04:27:46.182Z,95790.9
2018-07-14T04:28:48.646Z,95794.5
2018-07-14T04:29:51.235Z,95794.1
2018-07-14T04:30:53.417Z,95791.5
2018-07-14T04:31:56.071Z,95791.6
2018-07-14T04:32:57.981Z,95785.8
2018-07-14T04:34:00.126Z,95789.9
2018-07-14T04:35:02.036Z,95788.1
2018-07-14T04:36:04.244Z,95787.6
2018-07-14T04:37:06.417Z,95786.8
2018-07-14T04:38:08.866Z,95790.4
2018-07-14T04:39:10.510Z,95790.7
2018-07-14T04:40:12.688Z,95791.3
2018-07-14T04:41:15.166Z,95786.3
2018-07-14T04:42:16.787Z,95786.6
2018-07-14T04:43:18.706Z,95785.6
2018-07-14T04:44:20.884Z,95788.2
2018-07-14T04:45:22.793Z,95787.1
2018-07-14T04:46:24.962Z,95786.9
2018-07-14T04:47:27.413Z,95785.9
2018-07-14T04:48:29.594Z,95786.1
2018-07-14T04:49:32.031Z,95786.8
2018-07-14T04:50:33.941Z,95792.3
2018-07-14T04:51:35.834Z,95789.6
2018-07-14T04:52:37.738Z,95791.3
2018-07-14T04:53:39.651Z,95790
2018-07-14T04:54:42.104Z,95790
2018-07-14T04:55:44.255Z,95789.8
2018-07-14T04:56:46.417Z,95785.1
2018-07-14T04:57:48.597Z,95787.1
2018-07-14T04:58:51.045Z,95791.7
2018-07-14T04:59:53.225Z,95787.2
2018-07-14T05:00:55.656Z,95790.3
2018-07-14T05:01:57.826Z,95788.9
2018-07-14T05:03:00.270Z,95788.4
2018-07-14T05:04:02.716Z,95790.8
2018-07-14T05:05:04.888Z,95789.1
2018-07-14T05:06:07.053Z,95788.1
2018-07-14T05:07:08.955Z,95787.7
2018-07-14T05:08:10.866Z,95792.8
2018-07-14T05:09:13.304Z,95792.2
2018-07-14T05:10:15.476Z,95797.2
2018-07-14T05:11:17.360Z,95799.7
2018-07-14T05:12:19.807Z,95799.7
2018-07-14T05:13:22.261Z,95801.4
2018-07-14T05:14:24.433Z,95799.3
2018-07-14T05:15:26.595Z,95800.7
2018-07-14T05:16:28.502Z,95799.8
2018-07-14T05:17:30.135Z,95795.6
2018-07-14T05:18:32.313Z,95792.8
2018-07-14T05:19:34.496Z,95800.1
2018-07-14T05:20:36.403Z,95800.4
2018-07-14T05:21:38.289Z,95804.6
2018-07-14T05:22:40.462Z,95806.4
2018-07-14T05:23:42.937Z,95807.9
2018-07-14T05:24:45.387Z,95804.7
2018-07-14T05:25:47.013Z,95810
2018-07-14T05:26:49.455Z,95803.9
2018-07-14T05:27:51.639Z,95804.2
2018-07-14T05:28:54.098Z,95801.8
2018-07-14T05:29:56.558Z,95801.7
2018-07-14T05:30:59.025Z,95802.6
2018-07-14T05:32:01.466Z,95800.2
2018-07-14T05:33:03.631Z,95803.3
2018-07-14T05:34:06.089Z,95798.7
2018-07-14T05:35:08.276Z,95799.2
2018-07-14T05:36:10.159Z,95801.5
2018-07-14T05:37:12.065Z,95801.8
2018-07-14T05:38:14.514Z,95798.5
2018-07-14T05:39:16.681Z,95801.4
2018-07-14T05:40:19.129Z,95803.2
2018-07-14T05:41:21.575Z,95804.3
2018-07-14T05:42:23.766Z,95806.7
2018-07-14T05:43:26.205Z,95806.6
2018-07-14T05:44:28.397Z,95809.7
2018-07-14T05:45:30.596Z,95809.1
2018-07-14T05:46:32.868Z,95812
2018-07-14T05:47:34.874Z,95809.5
2018-07-14T05:48:37.427Z,95813
2018-07-14T05:49:39.690Z,95810.3
2018-07-14T05:50:42.009Z,95810.6
2018-07-14T05:51:44.058Z,95811
2018-07-14T05:52:46.548Z,95807.5
2018-07-14T05:53:48.745Z,95806.4
2018-07-14T05:54:51.193Z,95807
2018-07-14T05:55:53.383Z,95809.1
2018-07-14T05:56:55.833Z,95811.1
2018-07-14T05:57:57.730Z,95808
2018-07-14T05:58:59.918Z,95807
2018-07-14T06:00:02.371Z,95806.4
2018-07-14T06:01:04.829Z,95810.3
2018-07-14T06:02:07.004Z,95811.3
2018-07-14T06:03:08.903Z,95812.2
2018-07-14T06:04:11.107Z,95816.2
2018-07-14T06:05:13.560Z,95807.9
2018-07-14T06:06:15.720Z,95810.3
2018-07-14T06:07:17.888Z,95810.6
2018-07-14T06:08:20.330Z,95807.9
2018-07-14T06:09:22.515Z,95808.8
2018-07-14T06:10:24.959Z,95811.7
2018-07-14T06:11:26.856Z,95807.7
2018-07-14T06:12:29.035Z,95809.7
2018-07-14T06:13:31.488Z,95810.2
2018-07-14T06:14:33.664Z,95809.5
2018-07-14T06:15:35.846Z,95811.4
2018-07-14T06:16:38.296Z,95811.1
2018-07-14T06:17:40.746Z,95805
2018-07-14T06:18:43.193Z,95810.2
2018-07-14T06:19:45.630Z,95808.7
2018-07-14T06:20:48.089Z,95807.3
2018-07-14T06:21:50.266Z,95808.9
2018-07-14T06:22:52.464Z,95812.3
2018-07-14T06:23:54.636Z,95814.5
2018-07-14T06:24:56.896Z,95809.2
2018-07-14T06:25:59.379Z,95811
2018-07-14T06:27:01.572Z,95812.3
2018-07-14T06:28:03.745Z,95810.9
2018-07-14T06:29:05.923Z,95819.7
2018-07-14T06:30:07.557Z,95816.8
2018-07-14T06:31:09.730Z,95817.8
2018-07-14T06:32:11.469Z,95816.6
2018-07-14T06:33:13.937Z,95819.3
2018-07-14T06:34:16.375Z,95821.2
2018-07-14T06:35:18.255Z,95813.2
2018-07-14T06:36:20.435Z,95812.5
2018-07-14T06:37:22.877Z,95812.2
2018-07-14T06:38:25.821Z,95808.4
2018-07-14T06:39:28.506Z,95807.3
2018-07-14T06:40:30.679Z,95812.3
2018-07-14T06:41:32.860Z,95812.7
2018-07-14T06:42:34.497Z,95815.6
2018-07-14T06:43:36.679Z,95814
2018-07-14T06:44:38.966Z,95814.1
2018-07-14T06:45:41.116Z,95807.6
2018-07-14T06:46:43.306Z,95809.2
2018-07-14T06:47:45.755Z,95811.3
2018-07-14T06:48:47.921Z,95812.7
2018-07-14T06:49:50.096Z,95806.4
2018-07-14T06:50:52.273Z,95815.8
2018-07-14T06:51:54.837Z,95810.1
2018-07-14T06:52:57.189Z,95815.9
2018-07-14T06:53:59.722Z,95813.5
2018-07-14T06:55:01.693Z,95814
2018-07-14T06:56:04.177Z,95816.5
2018-07-14T06:57:06.681Z,95816.2
2018-07-14T06:58:08.876Z,95815.5
2018-07-14T06:59:11.072Z,95814.3
2018-07-14T07:00:13.253Z,95816.5
2018-07-14T07:01:15.748Z,95814.7
2018-07-14T07:02:18.210Z,95820.4
2018-07-14T07:03:20.589Z,95820.8
2018-07-14T07:04:22.781Z,95823.4
2018-07-14T07:05:24.954Z,95820.6
2018-07-14T07:06:27.138Z,95821.7
2018-07-14T07:07:29.044Z,95819.7
2018-07-14T07:08:31.198Z,95812.8
2018-07-14T07:09:33.376Z,95814.7
2018-07-14T07:10:35.263Z,95805.8
2018-07-14T07:11:37.188Z,95815.4
2018-07-14T07:12:39.634Z,95813.3
2018-07-14T07:13:42.260Z,95810.8
2018-07-14T07:14:44.474Z,95807.3
2018-07-14T07:15:46.643Z,95813.3
2018-07-14T07:16:48.785Z,95808.2
2018-07-14T07:17:50.953Z,95809.2
2018-07-14T07:18:53.403Z,95804.7
2018-07-14T07:19:55.861Z,95805.3
2018-07-14T07:20:58.005Z,95805.3
2018-07-14T07:22:00.150Z,95807.3
2018-07-14T07:23:02.601Z,95808.9
2018-07-14T07:24:04.780Z,95812
2018-07-14T07:25:07.238Z,95807.7
2018-07-14T07:26:09.699Z,95806.5
2018-07-14T07:27:11.864Z,95810.3
2018-07-14T07:28:14.034Z,95811.6
2018-07-14T07:29:15.926Z,95811.5
2018-07-14T07:30:17.852Z,95808.9
2018-07-14T07:31:20.047Z,95809.3
2018-07-14T07:32:22.487Z,95811.5
2018-07-14T07:33:24.933Z,95808.8
2018-07-14T07:34:27.410Z,95810.8
2018-07-14T07:35:29.357Z,95808.9
2018-07-14T07:36:31.814Z,95809.7
2018-07-14T07:37:34.275Z,95813.6
2018-07-14T07:38:36.430Z,95816.7
2018-07-14T07:39:38.876Z,95814.8
2018-07-14T07:40:41.059Z,95816.2
2018-07-14T07:41:42.678Z,95814.9
2018-07-14T07:42:44.818Z,95816.7
2018-07-14T07:43:47.266Z,95813.3
2018-07-14T07:44:49.713Z,95813.3
2018-07-14T07:45:52.316Z,95814.7
2018-07-14T07:46:54.987Z,95816.3
2018-07-14T07:47:57.621Z,95813
2018-07-14T07:49:00.328Z,95812.1
2018-07-14T07:50:03.032Z,95816.1
2018-07-14T07:51:05.075Z,95811.6
2018-07-14T07:52:07.504Z,95815.5
2018-07-14T07:53:09.784Z,95815.5
2018-07-14T07:54:11.959Z,95811.5
2018-07-14T07:55:14.407Z,95809.6
2018-07-14T07:56:16.626Z,95807.3
2018-07-14T07:57:19.086Z,95804
2018-07-14T07:58:21.530Z,95811.8
2018-07-14T07:59:23.700Z,95808.3
2018-07-14T08:00:25.308Z,95808.2
2018-07-14T08:01:26.937Z,95805.5
2018-07-14T08:02:29.528Z,95808.3
2018-07-14T08:03:32.173Z,95802.3
2018-07-14T08:04:34.369Z,95805.2
2018-07-14T08:05:36.288Z,95804.7
2018-07-14T08:06:38.752Z,95806.4
2018-07-14T08:07:40.953Z,95805.1
2018-07-14T08:08:44.349Z,95801.2
2018-07-14T08:09:47.155Z,95802.9
2018-07-14T08:10:49.639Z,95801.8
2018-07-14T08:11:52.112Z,95797.8
2018-07-14T08:12:54.616Z,95801.9
2018-07-14T08:13:57.082Z,95797.5
2018-07-14T08:14:59.538Z,95797.8
2018-07-14T08:16:02.084Z,95798.3
2018-07-14T08:17:04.574Z,95795.4
2018-07-14T08:18:06.498Z,95796.9
2018-07-14T08:19:08.455Z,95797.8
2018-07-14T08:20:10.910Z,95795.3
2018-07-14T08:21:12.525Z,95798.4
2018-07-14T08:22:14.972Z,95796.7
2018-07-14T08:23:16.879Z,95793.2
2018-07-14T08:24:19.056Z,95795.3
2018-07-14T08:25:20.978Z,95796.8
2018-07-14T08:26:23.431Z,95794
2018-07-14T08:27:25.879Z,95790
2018-07-14T08:28:28.060Z,95793.6
2018-07-14T08:29:30.231Z,95793.4
2018-07-14T08:30:32.422Z,95793
2018-07-14T08:31:34.605Z,95791.7
2018-07-14T08:32:36.779Z,95792
2018-07-14T08:33:39.237Z,95792.2
2018-07-14T08:34:41.417Z,95793.5
2018-07-14T08:35:43.850Z,95789.8
2018-07-14T08:36:46.159Z,95789.7
2018-07-14T08:37:48.377Z,95787.5
2018-07-14T08:38:50.854Z,95791.9
2018-07-14T08:39:53.294Z,95794.7
2018-07-14T08:40:55.470Z,95792.9
2018-07-14T08:41:57.923Z,95793.2
2018-07-14T08:43:00.090Z,95794.7
2018-07-14T08:44:02.568Z,95794.4
2018-07-14T08:45:04.742Z,95793
2018-07-14T08:46:06.943Z,95792.5
2018-07-14T08:47:09.380Z,95793.3
2018-07-14T08:48:11.566Z,95794.7
2018-07-14T08:49:13.751Z,95794
2018-07-14T08:50:16.196Z,95791.5
2018-07-14T08:51:19.114Z,95790.3
2018-07-14T08:52:20.997Z,95792.4
2018-07-14T08:53:23.455Z,95790.3
2018-07-14T08:54:25.903Z,95791.7
2018-07-14T08:55:28.351Z,95792
2018-07-14T08:56:30.561Z,95788.6
2018-07-14T08:57:32.788Z,95793
2018-07-14T08:58:35.228Z,95790.5
2018-07-14T08:59:37.405Z,95793.4
2018-07-14T09:00:39.592Z,95793.1
2018-07-14T09:01:41.770Z,95787.5
2018-07-14T09:02:43.382Z,95785.3
2018-07-14T09:03:46.104Z,95787.1
2018-07-14T09:04:48.557Z,95785.7
2018-07-14T09:05:50.441Z,95784.1
2018-07-14T09:06:52.322Z,95786.1
2018-07-14T09:07:54.488Z,95789.1
2018-07-14T09:08:56.943Z,95784.2
2018-07-14T09:09:59.107Z,95784.8
2018-07-14T09:11:00.989Z,95784.5
2018-07-14T09:12:03.429Z,95783.4
2018-07-14T09:13:05.875Z,95782.3
2018-07-14T09:14:08.052Z,95782.5
2018-07-14T09:15:10.230Z,95784.2
2018-07-14T09:16:12.682Z,95777.6
2018-07-14T09:17:14.848Z,95782.8
2018-07-14T09:18:17.301Z,95781.1
2018-07-14T09:19:19.189Z,95781.1
2018-07-14T09:20:20.818Z,95779.1
2018-07-14T09:21:23.263Z,95781.1
2018-07-14T09:22:25.718Z,95779.9
2018-07-14T09:23:27.616Z,95780.9
2018-07-14T09:24:30.067Z,95779.1
2018-07-14T09:25:32.257Z,95779.4
2018-07-14T09:26:34.184Z,95780.8
2018-07-14T09:27:36.632Z,95781
2018-07-14T09:28:39.083Z,95776.6
2018-07-14T09:29:41.251Z,95775.6
2018-07-14T09:30:43.711Z,95776.2
2018-07-14T09:31:46.155Z,95778.3
2018-07-14T09:32:48.338Z,95775.8
2018-07-14T09:33:50.516Z,95774.8
2018-07-14T09:34:52.700Z,95773.9
2018-07-14T09:35:54.854Z,95776.3
2018-07-14T09:36:57.310Z,95774.6
2018-07-14T09:38:00.141Z,95773.2
2018-07-14T09:39:02.422Z,95774.5
2018-07-14T09:40:04.877Z,95770
2018-07-14T09:41:07.334Z,95770.4
2018-07-14T09:42:09.782Z,95771.6
2018-07-14T09:43:12.231Z,95765.8
2018-07-14T09:44:14.679Z,95766.5
2018-07-14T09:45:16.862Z,95767
2018-07-14T09:46:19.053Z,95766.2
2018-07-14T09:47:21.232Z,95764.3
2018-07-14T09:48:23.134Z,95763.2
2018-07-14T09:49:25.321Z,95765.3
2018-07-14T09:50:27.769Z,95766.6
2018-07-14T09:51:30.238Z,95765.2
2018-07-14T09:52:32.683Z,95762.7
2018-07-14T09:53:34.881Z,95762.9
2018-07-14T09:54:37.355Z,95760.3
2018-07-14T09:55:39.525Z,95766.5
2018-07-14T09:56:41.978Z,95763.8
2018-07-14T09:57:44.428Z,95767.9
2018-07-14T09:58:46.378Z,95764.3
2018-07-14T09:59:48.571Z,95759.5
2018-07-14T10:00:50.483Z,95761.8
2018-07-14T10:01:52.487Z,95761.9
2018-07-14T10:02:54.413Z,95758.2
2018-07-14T10:03:56.170Z,95760.4
2018-07-14T10:04:58.086Z,95755.7
2018-07-14T10:06:00.744Z,95755.4
2018-07-14T10:07:02.974Z,95755.2
2018-07-14T10:08:05.169Z,95752.8
2018-07-14T10:09:07.657Z,95754
2018-07-14T10:10:09.900Z,95755.8
2018-07-14T10:11:12.343Z,95751.9
2018-07-14T10:12:14.529Z,95751.7
2018-07-14T10:13:17.136Z,95747.6
2018-07-14T10:14:19.841Z,95749.8
2018-07-14T10:15:22.287Z,95749.8
2018-07-14T10:16:24.736Z,95752.7
2018-07-14T10:17:26.544Z,95747.1
2018-07-14T10:18:28.778Z,95745.2
2018-07-14T10:19:31.223Z,95749.7
2018-07-14T10:20:33.667Z,95753.2
2018-07-14T10:21:36.122Z,95750.1
2018-07-14T10:22:38.300Z,95744.7
2018-07-14T10:23:40.931Z,95746.5
2018-07-14T10:24:42.995Z,95744.6
2018-07-14T10:25:46.554Z,95744
2018-07-14T10:26:48.965Z,95738
2018-07-14T10:27:51.421Z,95739.5
2018-07-14T10:28:53.679Z,95738.6
2018-07-14T10:29:56.228Z,95740.1
2018-07-14T10:30:57.604Z,95736.6
2018-07-14T10:32:00.059Z,95741
2018-07-14T10:33:02.596Z,95733.2
2018-07-14T10:34:05.048Z,95735.7
2018-07-14T10:35:07.743Z,95729.5
2018-07-14T10:36:09.968Z,95730.2
2018-07-14T10:37:12.436Z,95737.2
2018-07-14T10:38:14.656Z,95730.1
2018-07-14T10:39:16.851Z,95736.3
2018-07-14T10:40:19.048Z,95737.2
2018-07-14T10:41:21.225Z,95739.6
2018-07-14T10:42:23.582Z,95734.5
2018-07-14T10:43:26.137Z,95732.9
2018-07-14T10:44:28.339Z,95732.2
2018-07-14T10:45:30.788Z,95730.5
2018-07-14T10:46:32.973Z,95728.4
2018-07-14T10:47:35.432Z,95731.5
2018-07-14T10:48:37.883Z,95732.1
2018-07-14T10:49:40.073Z,95728
2018-07-14T10:50:42.524Z,95731.2
2018-07-14T10:51:44.676Z,95728.8
2018-07-14T10:52:46.869Z,95731.3
2018-07-14T10:53:49.325Z,95731.2
2018-07-14T10:54:51.779Z,95730.2
2018-07-14T10:55:54.238Z,95728.5
2018-07-14T10:56:56.441Z,95729.8
2018-07-14T10:57:59.091Z,95726.2
2018-07-14T10:59:01.663Z,95723.1
2018-07-14T11:00:03.940Z,95722.6
2018-07-14T11:01:06.436Z,95725.7
2018-07-14T11:02:08.378Z,95726.7
2018-07-14T11:03:10.607Z,95725.1
2018-07-14T11:04:13.201Z,95724.1
2018-07-14T11:05:15.688Z,95726
2018-07-14T11:06:18.143Z,95722.4
2018-07-14T11:07:20.606Z,95718.1
2018-07-14T11:08:23.051Z,95720.7
2018-07-14T11:09:25.512Z,95719.2
2018-07-14T11:10:27.688Z,95718.7
2018-07-14T11:11:29.853Z,95718.1
2018-07-14T11:12:32.303Z,95718.7
2018-07-14T11:13:33.928Z,95721.2
2018-07-14T11:14:36.122Z,95715.8
2018-07-14T11:15:38.302Z,95720.6
2018-07-14T11:16:40.755Z,95718.6
2018-07-14T11:17:43.064Z,95715.7
2018-07-14T11:18:45.536Z,95717.1
2018-07-14T11:19:47.421Z,95720.9
2018-07-14T11:20:49.327Z,95721.6
2018-07-14T11:21:51.500Z,95714.6
2018-07-14T11:22:53.672Z,95715.7
2018-07-14T11:23:55.602Z,95712.6
2018-07-14T11:24:58.053Z,95712.9
2018-07-14T11:26:00.494Z,95712.4
2018-07-14T11:27:02.679Z,95710.8
2018-07-14T11:28:04.865Z,95711.9
2018-07-14T11:29:06.757Z,95709.6
2018-07-14T11:30:09.345Z,95715.3
2018-07-14T11:31:11.788Z,95710.2
2018-07-14T11:32:14.227Z,95713.7
2018-07-14T11:33:16.679Z,95709.8
2018-07-14T11:34:18.841Z,95708.5
2018-07-14T11:35:21.290Z,95709.9
2018-07-14T11:36:23.449Z,95712.6
2018-07-14T11:37:25.635Z,95707.7
2018-07-14T11:38:28.084Z,95707.5
2018-07-14T11:39:30.516Z,95708.4
2018-07-14T11:40:32.972Z,95709.4
2018-07-14T11:41:35.421Z,95706.7
2018-07-14T11:42:37.646Z,95710.3
2018-07-14T11:43:40.106Z,95703.7
2018-07-14T11:44:42.013Z,95705.8
2018-07-14T11:45:43.917Z,95705.4
2018-07-14T11:46:45.575Z,95709.2
2018-07-14T11:47:47.827Z,95708.8
2018-07-14T11:48:50.311Z,95703.8
2018-07-14T11:49:52.808Z,95704.1
2018-07-14T11:50:55.048Z,95701.5
2018-07-14T11:51:57.050Z,95700.3
2018-07-14T11:52:59.258Z,95696.1
2018-07-14T11:54:01.459Z,95695.8
2018-07-14T11:55:03.930Z,95700.7
2018-07-14T11:56:06.465Z,95691.8
2018-07-14T11:57:08.670Z,95690
2018-07-14T11:58:11.121Z,95693.2
2018-07-14T11:59:13.288Z,95690.7
2018-07-14T12:00:15.736Z,95687.6
2018-07-14T12:01:17.718Z,95685.7
2018-07-14T12:02:19.926Z,95686
2018-07-14T12:03:21.831Z,95675.6
2018-07-14T12:04:24.026Z,95668.6
2018-07-14T12:05:26.469Z,95666.7
2018-07-14T12:06:28.916Z,95663.8
2018-07-14T12:07:31.377Z,95667.5
2018-07-14T12:08:33.547Z,95661.7
2018-07-14T12:09:36.014Z,95664.8
2018-07-14T12:10:38.172Z,95658.9
2018-07-14T12:11:40.336Z,95661.3
2018-07-14T12:12:42.518Z,95660.2
2018-07-14T12:13:44.957Z,95664
2018-07-14T12:14:47.399Z,95657.6
2018-07-14T12:15:49.566Z,95658.3
2018-07-14T12:16:51.467Z,95661.9
2018-07-14T12:17:53.920Z,95660.6
2018-07-14T12:18:56.084Z,95658.8
2018-07-14T12:19:58.538Z,95669
2018-07-14T12:21:00.727Z,95667
2018-07-14T12:22:03.171Z,95663
2018-07-14T12:23:05.632Z,95660.1
2018-07-14T12:24:07.523Z,95658.2
2018-07-14T12:25:09.977Z,95654.1
2018-07-14T12:26:12.418Z,95657.9
2018-07-14T12:27:14.869Z,95651.4
2018-07-14T12:28:17.036Z,95654.2
2018-07-14T12:29:19.227Z,95649.9
2018-07-14T12:30:22.350Z,95646.7
2018-07-14T12:31:24.538Z,95656.1
2018-07-14T12:32:26.992Z,95648.2
2018-07-14T12:33:29.167Z,95656.9
2018-07-14T12:34:31.343Z,95656.8
2018-07-14T12:35:33.788Z,95666.5
2018-07-14T12:36:36.067Z,95659.4